createdAt,value
2023-05-18T00:01:02.646Z,0.4805555555555555
2023-05-18T00:02:01.323Z,0.4361111111111111
2023-05-18T00:03:01.203Z,0.15833333333333333
2023-05-18T00:04:01.946Z,0.19999999999999998
2023-05-18T00:05:02.341Z,0.19999999999999998
2023-05-18T00:06:05.037Z,0.3194444444444444
2023-05-18T00:07:01.451Z,0.19999999999999998
2023-05-18T00:08:00.746Z,0.11944444444444444
2023-05-18T00:09:00.454Z,0.075
2023-05-18T00:10:00.163Z,0.31666666666666665
2023-05-18T00:11:07.605Z,0.19999999999999998
2023-05-18T00:12:01.087Z,0.23888888888888887
2023-05-18T00:13:01.078Z,0.3972222222222222
2023-05-18T00:14:01.115Z,0.675
2023-05-18T00:15:01.147Z,0.19999999999999998
2023-05-18T00:16:10.846Z,0.22222222222222224
2023-05-18T00:17:01.397Z,0.5277777777777778
2023-05-18T00:18:01.587Z,0.2333333333333333
2023-05-18T00:19:01.291Z,0.47777777777777775
2023-05-18T00:20:01.705Z,0.31666666666666665
2023-05-18T00:21:14.212Z,0.18333333333333335
2023-05-18T00:22:01.033Z,0.31666666666666665
2023-05-18T00:23:01.051Z,0.08055555555555555
2023-05-18T00:24:01.052Z,0.19999999999999998
2023-05-18T00:25:01.082Z,0.08055555555555555
2023-05-18T00:26:16.513Z,0.5055555555555555
2023-05-18T00:27:02.180Z,0.11388888888888887
2023-05-18T00:28:01.091Z,0.23888888888888887
2023-05-18T00:29:01.033Z,0.31666666666666665
2023-05-18T00:30:00.725Z,0.5555555555555556
2023-05-18T00:31:00.407Z,0.35833333333333334
2023-05-18T00:32:00.123Z,0.11944444444444444
2023-05-18T00:32:59.846Z,0.47777777777777775
2023-05-18T00:33:59.495Z,0.23888888888888887
2023-05-18T00:35:01.066Z,0.47777777777777775
2023-05-18T00:36:01.028Z,0.2777777777777778
2023-05-18T00:37:01.198Z,0.31666666666666665
2023-05-18T00:38:01.428Z,0.375
2023-05-18T00:39:01.182Z,0.35833333333333334
2023-05-18T00:40:01.101Z,0.2777777777777778
2023-05-18T00:41:01.056Z,0.35833333333333334
2023-05-18T00:42:01.069Z,0.23888888888888887
2023-05-18T00:43:01.799Z,0.675
2023-05-18T00:44:01.449Z,0.23888888888888887
2023-05-18T00:45:01.139Z,0.47777777777777775
2023-05-18T00:46:01.192Z,0.4361111111111111
2023-05-18T00:47:01.495Z,0.3611111111111111
2023-05-18T00:48:01.148Z,0.19999999999999998
2023-05-18T00:49:01.993Z,0.47777777777777775
2023-05-18T00:50:02.076Z,0.08055555555555555
2023-05-18T00:51:01.036Z,0.19999999999999998
2023-05-18T00:52:01.103Z,0.15833333333333333
2023-05-18T00:53:01.061Z,0.15833333333333333
2023-05-18T00:54:01.107Z,0.19999999999999998
2023-05-18T00:55:01.208Z,0.19999999999999998
2023-05-18T00:56:01.215Z,0.15833333333333333
2023-05-18T00:57:03.937Z,0.2888888888888889
2023-05-18T00:58:01.106Z,0.11944444444444444
2023-05-18T00:59:01.040Z,0.08055555555555555
2023-05-18T01:00:03.776Z,0.08055555555555555
2023-05-18T01:01:01.158Z,0.08055555555555555
2023-05-18T01:02:02.457Z,0.19999999999999998
2023-05-18T01:03:02.127Z,0.2777777777777778
2023-05-18T01:04:01.135Z,0.31666666666666665
2023-05-18T01:05:01.593Z,0.08055555555555555
2023-05-18T01:06:01.218Z,0.23888888888888887
2023-05-18T01:07:01.269Z,0
2023-05-18T01:08:01.131Z,0
2023-05-18T01:09:00.735Z,0
2023-05-18T01:10:00.341Z,0
2023-05-18T01:10:59.983Z,0
2023-05-18T01:11:59.625Z,0
2023-05-18T01:13:01.855Z,0
2023-05-18T01:14:01.107Z,0
2023-05-18T01:15:01.100Z,0
2023-05-18T01:16:01.093Z,0
2023-05-18T01:17:01.412Z,0
2023-05-18T01:18:01.511Z,0
2023-05-18T01:19:04.384Z,0
2023-05-18T01:20:02.207Z,0
2023-05-18T01:21:01.159Z,0.08055555555555555
2023-05-18T01:22:01.168Z,0
2023-05-18T01:23:01.327Z,0
2023-05-18T01:24:01.514Z,0
2023-05-18T01:25:01.100Z,0.08055555555555555
2023-05-18T01:26:01.056Z,0
2023-05-18T01:27:01.087Z,0
2023-05-18T01:28:00.786Z,0
2023-05-18T01:29:00.345Z,0
2023-05-18T01:29:59.966Z,0
2023-05-18T01:30:59.680Z,0
2023-05-18T01:32:01.457Z,0
2023-05-18T01:33:01.173Z,0
2023-05-18T01:34:32.818Z,0
2023-05-18T01:35:01.946Z,0
2023-05-18T01:36:01.406Z,0
2023-05-18T01:37:01.190Z,0
2023-05-18T01:38:01.969Z,0
2023-05-18T01:39:01.138Z,0
2023-05-18T01:40:01.056Z,0
2023-05-18T01:41:00.722Z,0
2023-05-18T01:42:00.461Z,0
2023-05-18T01:43:00.129Z,0
2023-05-18T01:43:59.727Z,0
2023-05-18T01:45:01.794Z,0
2023-05-18T01:46:01.109Z,0
2023-05-18T01:47:01.027Z,0
2023-05-18T01:48:01.141Z,0
2023-05-18T01:49:01.244Z,0
2023-05-18T01:50:01.141Z,0
2023-05-18T01:51:01.039Z,0
2023-05-18T01:52:02.735Z,0
2023-05-18T01:53:01.127Z,0
2023-05-18T01:54:01.167Z,0.23888888888888887
2023-05-18T01:55:01.029Z,0
2023-05-18T01:56:01.174Z,0.03888888888888889
2023-05-18T01:57:05.426Z,0
2023-05-18T01:58:01.429Z,0
2023-05-18T01:59:02.004Z,0
2023-05-18T02:00:01.497Z,0
2023-05-18T02:01:01.197Z,0
2023-05-18T02:02:06.887Z,0
2023-05-18T02:03:01.190Z,0.19999999999999998
2023-05-18T02:04:01.257Z,0.03888888888888889
2023-05-18T02:05:02.526Z,0
2023-05-18T02:06:01.108Z,0
2023-05-18T02:07:10.080Z,0
2023-05-18T02:08:01.820Z,0
2023-05-18T02:09:01.482Z,0
2023-05-18T02:10:01.524Z,0
2023-05-18T02:11:01.436Z,0
2023-05-18T02:12:12.766Z,0
2023-05-18T02:13:01.089Z,0
2023-05-18T02:14:01.792Z,0
2023-05-18T02:15:01.085Z,0
2023-05-18T02:16:01.129Z,0
2023-05-18T02:17:15.319Z,0
2023-05-18T02:18:01.815Z,0
2023-05-18T02:19:02.322Z,0
2023-05-18T02:20:02.049Z,0
2023-05-18T02:21:01.092Z,0
2023-05-18T02:22:01.029Z,0
2023-05-18T02:23:00.675Z,0
2023-05-18T02:24:00.300Z,0
2023-05-18T02:25:00.099Z,0
2023-05-18T02:25:59.867Z,0
2023-05-18T02:26:59.880Z,0
2023-05-18T02:27:59.600Z,0
2023-05-18T02:29:01.162Z,0
2023-05-18T02:30:01.151Z,0
2023-05-18T02:31:01.567Z,0
2023-05-18T02:32:01.077Z,0
2023-05-18T02:33:01.126Z,0
2023-05-18T02:34:01.707Z,0
2023-05-18T02:35:01.084Z,0
2023-05-18T02:36:01.093Z,0
2023-05-18T02:37:01.197Z,0
2023-05-18T02:38:01.917Z,0
2023-05-18T02:39:02.079Z,0
2023-05-18T02:40:01.125Z,0
2023-05-18T02:41:00.825Z,0
2023-05-18T02:42:00.451Z,0
2023-05-18T02:43:00.100Z,0
2023-05-18T02:44:06.458Z,0
2023-05-18T02:45:05.763Z,0
2023-05-18T02:46:01.753Z,0
2023-05-18T02:47:01.047Z,0
2023-05-18T02:48:01.079Z,0
2023-05-18T02:49:01.058Z,0
2023-05-18T02:50:01.147Z,0
2023-05-18T02:51:00.960Z,0
2023-05-18T02:52:01.496Z,0
2023-05-18T02:53:02.966Z,0
2023-05-18T02:54:01.663Z,0
2023-05-18T02:55:01.272Z,0
2023-05-18T02:56:01.777Z,0
2023-05-18T02:57:01.113Z,0
2023-05-18T02:58:01.882Z,0
2023-05-18T02:59:01.056Z,0
2023-05-18T03:00:00.503Z,0
2023-05-18T03:01:00.215Z,0
2023-05-18T03:01:59.970Z,0
2023-05-18T03:02:59.687Z,0
2023-05-18T03:04:01.880Z,0
2023-05-18T03:05:01.792Z,0
2023-05-18T03:06:02.074Z,0
2023-05-18T03:07:01.069Z,0
2023-05-18T03:08:01.333Z,0.08055555555555555
2023-05-18T03:09:01.484Z,0
2023-05-18T03:10:01.020Z,0
2023-05-18T03:11:01.121Z,0
2023-05-18T03:12:01.106Z,0
2023-05-18T03:13:01.287Z,0
2023-05-18T03:14:02.043Z,0
2023-05-18T03:15:02.662Z,0
2023-05-18T03:16:01.062Z,0
2023-05-18T03:17:01.109Z,0
2023-05-18T03:18:01.096Z,0
2023-05-18T03:19:00.838Z,0
2023-05-18T03:20:00.543Z,0
2023-05-18T03:21:00.329Z,0
2023-05-18T03:22:00.044Z,0
2023-05-18T03:22:59.607Z,0
2023-05-18T03:24:01.699Z,0
2023-05-18T03:25:01.289Z,0
2023-05-18T03:26:01.137Z,0
2023-05-18T03:27:01.243Z,0
2023-05-18T03:28:01.144Z,0
2023-05-18T03:29:01.137Z,0
2023-05-18T03:30:01.437Z,0
2023-05-18T03:31:01.080Z,0
2023-05-18T03:32:01.073Z,0
2023-05-18T03:33:03.893Z,0
2023-05-18T03:34:01.087Z,0
2023-05-18T03:35:01.744Z,0
2023-05-18T03:36:01.245Z,0
2023-05-18T03:37:01.454Z,0
2023-05-18T03:38:06.942Z,0
2023-05-18T03:39:01.295Z,0
2023-05-18T03:40:00.604Z,0
2023-05-18T03:41:00.288Z,0
2023-05-18T03:41:59.879Z,0
2023-05-18T03:43:08.791Z,0
2023-05-18T03:44:01.001Z,0
2023-05-18T03:45:01.596Z,0
2023-05-18T03:46:01.570Z,0
2023-05-18T03:47:03.935Z,0
2023-05-18T03:48:12.749Z,0
2023-05-18T03:49:01.037Z,0
2023-05-18T03:50:01.038Z,0
2023-05-18T03:51:01.052Z,0
2023-05-18T03:52:01.363Z,0
2023-05-18T03:53:15.409Z,0
2023-05-18T03:54:01.422Z,0
2023-05-18T03:55:02.095Z,0
2023-05-18T03:56:01.177Z,0
2023-05-18T03:57:00.781Z,0
2023-05-18T03:58:01.102Z,0
2023-05-18T03:59:01.019Z,0
2023-05-18T04:00:00.718Z,0
2023-05-18T04:01:00.391Z,0
2023-05-18T04:02:00.013Z,0
2023-05-18T04:02:59.811Z,0
2023-05-18T04:04:01.841Z,0
2023-05-18T04:05:01.490Z,0
2023-05-18T04:06:01.300Z,0
2023-05-18T04:07:01.407Z,0
2023-05-18T04:08:01.424Z,0
2023-05-18T04:09:01.097Z,0
2023-05-18T04:10:01.081Z,0
2023-05-18T04:11:01.080Z,0
2023-05-18T04:12:01.106Z,0
2023-05-18T04:13:01.205Z,0.15833333333333333
2023-05-18T04:14:01.976Z,0
2023-05-18T04:15:01.950Z,0
2023-05-18T04:16:01.279Z,0.11944444444444444
2023-05-18T04:17:01.129Z,0
2023-05-18T04:18:01.219Z,0
2023-05-18T04:19:01.096Z,0.07222222222222223
2023-05-18T04:20:01.042Z,0
2023-05-18T04:21:00.763Z,0
2023-05-18T04:22:00.306Z,0
2023-05-18T04:23:00.220Z,0.11944444444444444
2023-05-18T04:23:59.836Z,0
2023-05-18T04:25:01.802Z,0.11944444444444444
2023-05-18T04:26:01.099Z,0
2023-05-18T04:27:01.090Z,0
2023-05-18T04:28:01.135Z,0
2023-05-18T04:29:01.200Z,0
2023-05-18T04:30:01.839Z,0.1527777777777778
2023-05-18T04:31:01.144Z,0.35833333333333334
2023-05-18T04:32:01.336Z,0
2023-05-18T04:33:01.111Z,0.03888888888888889
2023-05-18T04:34:01.549Z,0.23055555555555554
2023-05-18T04:35:04.008Z,0
2023-05-18T04:36:01.152Z,0.11944444444444444
2023-05-18T04:37:00.860Z,0.23888888888888887
2023-05-18T04:38:01.060Z,0
2023-05-18T04:39:01.016Z,0.15833333333333333
2023-05-18T04:40:00.747Z,0.19166666666666665
2023-05-18T04:41:00.439Z,0
2023-05-18T04:42:00.067Z,0.03888888888888889
2023-05-18T04:43:00.201Z,0.15833333333333333
2023-05-18T04:43:59.861Z,0
2023-05-18T04:45:01.507Z,0
2023-05-18T04:46:02.333Z,0.11944444444444444
2023-05-18T04:47:00.910Z,0.19999999999999998
2023-05-18T04:48:00.745Z,0
2023-05-18T04:49:00.491Z,0.05833333333333333
2023-05-18T04:50:00.114Z,0
2023-05-18T04:50:59.793Z,0
2023-05-18T04:52:01.449Z,0.15833333333333333
2023-05-18T04:53:01.044Z,0.19999999999999998
2023-05-18T04:54:01.098Z,0.41666666666666663
2023-05-18T04:55:01.077Z,0.2777777777777778
2023-05-18T04:56:01.085Z,0.23888888888888887
2023-05-18T04:57:01.462Z,0.39444444444444443
2023-05-18T04:58:01.151Z,0.2777777777777778
2023-05-18T04:59:01.073Z,0.19722222222222222
2023-05-18T05:00:01.225Z,0.2777777777777778
2023-05-18T05:01:01.145Z,0.15833333333333333
2023-05-18T05:02:01.095Z,0.03888888888888889
2023-05-18T05:03:01.328Z,0
2023-05-18T05:04:01.267Z,0.075
2023-05-18T05:05:01.176Z,0.31666666666666665
2023-05-18T05:06:01.506Z,0.11666666666666665
2023-05-18T05:07:04.411Z,0.19722222222222222
2023-05-18T05:08:01.108Z,0.19999999999999998
2023-05-18T05:09:01.032Z,0.075
2023-05-18T05:10:01.053Z,0.11944444444444444
2023-05-18T05:11:01.051Z,0.11944444444444444
2023-05-18T05:12:01.053Z,0.15833333333333333
2023-05-18T05:13:01.071Z,0.35833333333333334
2023-05-18T05:14:01.578Z,0.24722222222222223
2023-05-18T05:15:01.194Z,0.15833333333333333
2023-05-18T05:16:01.101Z,0.23888888888888887
2023-05-18T05:17:01.081Z,0.11944444444444444
2023-05-18T05:18:01.142Z,0.23888888888888887
2023-05-18T05:19:03.718Z,0.1611111111111111
2023-05-18T05:20:00.898Z,0.3972222222222222
2023-05-18T05:21:01.193Z,0.31666666666666665
2023-05-18T05:22:01.165Z,0.23888888888888887
2023-05-18T05:23:01.074Z,0.35833333333333334
2023-05-18T05:24:05.652Z,0.20833333333333331
2023-05-18T05:25:02.146Z,0.11111111111111112
2023-05-18T05:26:02.998Z,0.3638888888888889
2023-05-18T05:27:01.195Z,0.11944444444444444
2023-05-18T05:28:01.078Z,0.15833333333333333
2023-05-18T05:29:08.914Z,0.35555555555555557
2023-05-18T05:30:01.083Z,0.21944444444444444
2023-05-18T05:31:01.048Z,0.19999999999999998
2023-05-18T05:32:01.255Z,0
2023-05-18T05:33:01.135Z,0.08055555555555555
2023-05-18T05:34:11.518Z,0.17222222222222222
2023-05-18T05:35:01.098Z,0
2023-05-18T05:36:01.138Z,0
2023-05-18T05:37:01.125Z,0.3972222222222222
2023-05-18T05:38:01.116Z,0.31666666666666665
2023-05-18T05:39:15.038Z,0.17222222222222222
2023-05-18T05:40:01.042Z,0.2777777777777778
2023-05-18T05:41:00.823Z,0.3972222222222222
2023-05-18T05:42:01.442Z,0.11944444444444444
2023-05-18T05:43:01.087Z,0.4361111111111111
2023-05-18T05:44:01.068Z,0.23888888888888887
2023-05-18T05:45:01.053Z,0.5555555555555556
2023-05-18T05:46:01.058Z,0.4361111111111111
2023-05-18T05:47:01.077Z,0.2777777777777778
2023-05-18T05:48:01.054Z,0.35833333333333334
2023-05-18T05:49:01.140Z,0.31666666666666665
2023-05-18T05:50:01.147Z,0.4361111111111111
2023-05-18T05:51:02.410Z,0.03888888888888889
2023-05-18T05:52:02.200Z,0.5555555555555556
2023-05-18T05:53:01.119Z,0.15833333333333333
2023-05-18T05:54:00.849Z,0.2777777777777778
2023-05-18T05:55:01.973Z,0.31666666666666665
2023-05-18T05:56:01.058Z,0.3972222222222222
2023-05-18T05:57:01.030Z,0.19999999999999998
2023-05-18T05:58:01.035Z,0.23888888888888887
2023-05-18T05:59:01.064Z,0.4361111111111111
2023-05-18T06:00:01.766Z,0.5277777777777778
2023-05-18T06:01:01.075Z,0.47777777777777775
2023-05-18T06:02:01.105Z,0.5555555555555556
2023-05-18T06:03:01.116Z,0.47777777777777775
2023-05-18T06:04:01.179Z,0.2777777777777778
2023-05-18T06:05:01.106Z,0
2023-05-18T06:06:01.421Z,0.47777777777777775
2023-05-18T06:07:01.193Z,0.15833333333333333
2023-05-18T06:08:01.191Z,0.2777777777777778
2023-05-18T06:09:01.044Z,0.31666666666666665
2023-05-18T06:10:01.202Z,0.4361111111111111
2023-05-18T06:11:01.212Z,0.2777777777777778
2023-05-18T06:12:01.229Z,0
2023-05-18T06:13:01.238Z,0.47777777777777775
2023-05-18T06:14:01.249Z,0.31666666666666665
2023-05-18T06:15:01.066Z,0.10833333333333334
2023-05-18T06:16:01.111Z,0.08055555555555555
2023-05-18T06:17:01.096Z,0.3972222222222222
2023-05-18T06:18:01.051Z,0.47777777777777775
2023-05-18T06:19:01.089Z,0.35833333333333334
2023-05-18T06:20:01.108Z,0
2023-05-18T06:21:01.094Z,0.6361111111111111
2023-05-18T06:22:01.694Z,0.7916666666666666
2023-05-18T06:23:01.123Z,0.3972222222222222
2023-05-18T06:24:01.140Z,0
2023-05-18T06:25:01.135Z,0.23888888888888887
2023-05-18T06:26:01.113Z,0.3972222222222222
2023-05-18T06:27:01.137Z,0.23888888888888887
2023-05-18T06:28:01.037Z,0.2777777777777778
2023-05-18T06:29:01.056Z,0.5555555555555556
2023-05-18T06:30:01.052Z,0.19999999999999998
2023-05-18T06:31:01.696Z,0.19999999999999998
2023-05-18T06:32:01.197Z,0.4361111111111111
2023-05-18T06:33:01.105Z,0.4361111111111111
2023-05-18T06:34:01.085Z,0.31666666666666665
2023-05-18T06:35:01.228Z,0.3638888888888889
2023-05-18T06:36:01.187Z,0.19999999999999998
2023-05-18T06:37:01.125Z,0.35833333333333334
2023-05-18T06:38:01.120Z,0.2777777777777778
2023-05-18T06:39:01.124Z,0.5972222222222222
2023-05-18T06:40:01.108Z,0.2777777777777778
2023-05-18T06:41:01.018Z,0.23888888888888887
2023-05-18T06:42:01.523Z,0.21666666666666667
2023-05-18T06:43:01.152Z,0.3972222222222222
2023-05-18T06:44:01.050Z,0.23888888888888887
2023-05-18T06:45:01.057Z,0.5972222222222222
2023-05-18T06:46:01.060Z,0.23888888888888887
2023-05-18T06:47:01.053Z,0.2777777777777778
2023-05-18T06:48:01.089Z,0.5972222222222222
2023-05-18T06:49:01.072Z,0.4361111111111111
2023-05-18T06:50:01.100Z,0.5972222222222222
2023-05-18T06:51:01.345Z,0.9527777777777778
2023-05-18T06:52:01.489Z,0.25833333333333336
2023-05-18T06:53:01.206Z,0.4361111111111111
2023-05-18T06:54:01.114Z,0.11944444444444444
2023-05-18T06:55:00.894Z,0.30833333333333335
2023-05-18T06:56:00.510Z,0.4361111111111111
2023-05-18T06:57:00.338Z,0.15833333333333333
2023-05-18T06:58:00.102Z,0.47777777777777775
2023-05-18T06:59:00.487Z,0.5972222222222222
2023-05-18T07:00:00.460Z,0.5916666666666667
2023-05-18T07:01:00.378Z,0.5555555555555556
2023-05-18T07:02:00.364Z,0.8333333333333333
2023-05-18T07:03:00.257Z,1.0722222222222222
2023-05-18T07:03:59.963Z,1.2305555555555554
2023-05-18T07:04:59.616Z,0.8861111111111111
2023-05-18T07:06:01.265Z,0.9527777777777778
2023-05-18T07:07:01.529Z,0.6722222222222222
2023-05-18T07:08:01.552Z,0.5527777777777778
2023-05-18T07:09:01.292Z,0.675
2023-05-18T07:10:02.891Z,0.3333333333333333
2023-05-18T07:11:02.028Z,0.35833333333333334
2023-05-18T07:12:01.248Z,0.675
2023-05-18T07:13:01.131Z,1.35
2023-05-18T07:14:01.024Z,0.2777777777777778
2023-05-18T07:15:05.619Z,0.4305555555555556
2023-05-18T07:16:01.102Z,0.2777777777777778
2023-05-18T07:17:01.032Z,0.4361111111111111
2023-05-18T07:18:01.077Z,0.3972222222222222
2023-05-18T07:19:01.110Z,0.7138888888888888
2023-05-18T07:20:08.657Z,0.8694444444444444
2023-05-18T07:21:00.896Z,0.5555555555555556
2023-05-18T07:22:01.080Z,0.2777777777777778
2023-05-18T07:23:01.429Z,1.1833333333333333
2023-05-18T07:24:01.494Z,0.8611111111111112
2023-05-18T07:25:12.640Z,0.5916666666666667
2023-05-18T07:26:01.896Z,0.9138888888888889
2023-05-18T07:27:01.497Z,0.47777777777777775
2023-05-18T07:28:01.118Z,0.9138888888888889
2023-05-18T07:29:01.138Z,0.7138888888888888
2023-05-18T07:30:14.347Z,0.75
2023-05-18T07:31:01.083Z,0.5166666666666667
2023-05-18T07:32:01.081Z,0.675
2023-05-18T07:33:01.057Z,0.2777777777777778
2023-05-18T07:34:01.052Z,0.15833333333333333
2023-05-18T07:35:16.265Z,0.40555555555555556
2023-05-18T07:36:01.448Z,0.3055555555555556
2023-05-18T07:37:01.173Z,0.5972222222222222
2023-05-18T07:38:01.083Z,0.5972222222222222
2023-05-18T07:39:01.092Z,0.7944444444444444
2023-05-18T07:40:01.079Z,0.7138888888888888
2023-05-18T07:41:00.783Z,0.5555555555555556
2023-05-18T07:42:00.369Z,0.7944444444444444
2023-05-18T07:42:59.970Z,0.5166666666666667
2023-05-18T07:43:59.582Z,0.675
2023-05-18T07:45:01.129Z,0.3972222222222222
2023-05-18T07:46:01.460Z,0.7138888888888888
2023-05-18T07:47:01.529Z,0.47777777777777775
2023-05-18T07:48:01.183Z,0.31666666666666665
2023-05-18T07:49:02.719Z,0.7555555555555555
2023-05-18T07:50:01.741Z,0.11944444444444444
2023-05-18T07:51:01.343Z,0.6361111111111111
2023-05-18T07:52:01.913Z,0.31666666666666665
2023-05-18T07:53:01.994Z,0.3972222222222222
2023-05-18T07:54:01.086Z,0.3972222222222222
2023-05-18T07:55:01.046Z,0.5555555555555556
2023-05-18T07:56:01.029Z,0.7944444444444444
2023-05-18T07:57:01.117Z,0.6361111111111111
2023-05-18T07:58:01.402Z,0.7555555555555555
2023-05-18T07:59:01.134Z,0.7944444444444444
2023-05-18T08:00:01.160Z,0.35833333333333334
2023-05-18T08:01:01.008Z,0.19999999999999998
2023-05-18T08:02:01.155Z,0.675
2023-05-18T08:03:02.620Z,1.2305555555555554
2023-05-18T08:04:01.829Z,0.3972222222222222
2023-05-18T08:05:04.472Z,0.5111111111111111
2023-05-18T08:06:02.080Z,0.7138888888888888
2023-05-18T08:07:01.074Z,0.47777777777777775
2023-05-18T08:08:01.068Z,0.875
2023-05-18T08:09:01.083Z,0.6361111111111111
2023-05-18T08:10:01.095Z,0.8333333333333333
2023-05-18T08:11:01.132Z,0.35833333333333334
2023-05-18T08:12:01.100Z,0.5166666666666667
2023-05-18T08:13:01.223Z,0.31666666666666665
2023-05-18T08:14:01.497Z,1.0194444444444444
2023-05-18T08:15:02.469Z,0.675
2023-05-18T08:16:10.983Z,0.9138888888888889
2023-05-18T08:17:01.451Z,0.5166666666666667
2023-05-18T08:18:02.426Z,0.9944444444444445
2023-05-18T08:19:01.726Z,0.5555555555555556
2023-05-18T08:20:02.524Z,0.31666666666666665
2023-05-18T08:21:01.447Z,0.5555555555555556
2023-05-18T08:22:01.423Z,0.5499999999999999
2023-05-18T08:23:02.067Z,0.675
2023-05-18T08:24:02.255Z,0.3111111111111111
2023-05-18T08:25:01.118Z,0.2777777777777778
2023-05-18T08:26:01.103Z,0.4361111111111111
2023-05-18T08:27:01.097Z,0.3972222222222222
2023-05-18T08:28:01.893Z,0.8333333333333333
2023-05-18T08:29:01.028Z,0.6361111111111111
2023-05-18T08:30:01.045Z,0.5972222222222222
2023-05-18T08:31:01.152Z,0.9333333333333332
2023-05-18T08:32:03.913Z,0.6694444444444445
2023-05-18T08:33:01.437Z,0.6361111111111111
2023-05-18T08:34:01.131Z,0.4361111111111111
2023-05-18T08:35:01.948Z,0.9527777777777778
2023-05-18T08:36:02.572Z,0.2777777777777778
2023-05-18T08:37:01.579Z,0.47777777777777775
2023-05-18T08:38:02.190Z,0.8333333333333333
2023-05-18T08:39:01.149Z,0.47777777777777775
2023-05-18T08:40:01.506Z,0.6611111111111111
2023-05-18T08:41:01.085Z,0.26944444444444443
2023-05-18T08:42:01.092Z,0.2777777777777778
2023-05-18T08:43:01.077Z,0.5166666666666667
2023-05-18T08:44:01.104Z,0.875
2023-05-18T08:45:01.095Z,0.3972222222222222
2023-05-18T08:46:01.502Z,0.07777777777777778
2023-05-18T08:47:02.165Z,0.6333333333333333
2023-05-18T08:48:01.210Z,0.7944444444444444
2023-05-18T08:49:01.166Z,0.47777777777777775
2023-05-18T08:50:01.170Z,0.4361111111111111
2023-05-18T08:51:01.171Z,0.44166666666666665
2023-05-18T08:52:01.420Z,0.42777777777777776
2023-05-18T08:53:01.075Z,1.1111111111111112
2023-05-18T08:54:01.053Z,0.8333333333333333
2023-05-18T08:55:01.052Z,0.675
2023-05-18T08:56:04.537Z,0.24722222222222223
2023-05-18T08:57:01.893Z,1.1111111111111112
2023-05-18T08:58:01.462Z,0.5555555555555556
2023-05-18T08:59:01.465Z,0.35833333333333334
2023-05-18T09:00:02.676Z,0.3527777777777778
2023-05-18T09:01:06.875Z,0.19999999999999998
2023-05-18T09:02:02.251Z,0.5916666666666667
2023-05-18T09:03:01.057Z,0.5166666666666667
2023-05-18T09:04:01.028Z,0.3972222222222222
2023-05-18T09:05:01.090Z,0.875
2023-05-18T09:06:09.287Z,0.22222222222222224
2023-05-18T09:07:01.692Z,0.23888888888888887
2023-05-18T09:08:02.177Z,1.1305555555555555
2023-05-18T09:09:01.461Z,1.15
2023-05-18T09:10:00.850Z,0.47777777777777775
2023-05-18T09:11:12.245Z,0.7555555555555555
2023-05-18T09:12:00.848Z,0.2777777777777778
2023-05-18T09:13:01.155Z,1.2305555555555554
2023-05-18T09:14:01.088Z,0.875
2023-05-18T09:15:01.075Z,0.675
2023-05-18T09:16:15.036Z,0.5416666666666666
2023-05-18T09:17:01.096Z,0.675
2023-05-18T09:18:01.121Z,0.5555555555555556
2023-05-18T09:19:01.446Z,0.5555555555555556
2023-05-18T09:20:01.504Z,0.35555555555555557
2023-05-18T09:21:16.771Z,0.8333333333333333
2023-05-18T09:22:01.427Z,0.7944444444444444
2023-05-18T09:23:01.028Z,0.7944444444444444
2023-05-18T09:24:01.046Z,0.5166666666666667
2023-05-18T09:25:01.403Z,0.5972222222222222
2023-05-18T09:26:01.048Z,0.7138888888888888
2023-05-18T09:27:01.107Z,0.3972222222222222
2023-05-18T09:28:01.076Z,0.15833333333333333
2023-05-18T09:29:02.090Z,0.9527777777777778
2023-05-18T09:30:01.342Z,0.9944444444444445
2023-05-18T09:31:01.593Z,0.5416666666666666
2023-05-18T09:32:01.306Z,0.7138888888888888
2023-05-18T09:33:01.208Z,0.47777777777777775
2023-05-18T09:34:01.135Z,0.47777777777777775
2023-05-18T09:35:01.016Z,0.2777777777777778
2023-05-18T09:36:01.126Z,0.15833333333333333
2023-05-18T09:37:01.534Z,0.23888888888888887
2023-05-18T09:38:01.666Z,0.225
2023-05-18T09:39:02.056Z,0.31666666666666665
2023-05-18T09:40:01.500Z,0.35833333333333334
2023-05-18T09:41:00.744Z,0.2777777777777778
2023-05-18T09:42:00.324Z,0.35833333333333334
2023-05-18T09:43:00.008Z,1.3916666666666666
2023-05-18T09:43:59.647Z,1.0722222222222222
2023-05-18T09:45:01.368Z,0.35833333333333334
2023-05-18T09:46:01.091Z,0.47777777777777775
2023-05-18T09:47:01.621Z,1.0333333333333334
2023-05-18T09:48:02.180Z,0.35833333333333334
2023-05-18T09:49:01.398Z,0.7555555555555555
2023-05-18T09:50:01.108Z,0.6361111111111111
2023-05-18T09:51:01.111Z,0.2777777777777778
2023-05-18T09:52:01.150Z,0.5972222222222222
2023-05-18T09:53:01.121Z,0.19999999999999998
2023-05-18T09:54:01.045Z,0.19999999999999998
2023-05-18T09:55:01.034Z,1.0333333333333334
2023-05-18T09:56:01.031Z,0.31666666666666665
2023-05-18T09:57:10.116Z,0.23888888888888887
2023-05-18T09:58:02.258Z,0.4361111111111111
2023-05-18T09:59:01.156Z,0.35833333333333334
2023-05-18T10:00:01.063Z,0.31666666666666665
2023-05-18T10:01:00.925Z,0.47777777777777775
2023-05-18T10:02:01.144Z,0.7555555555555555
2023-05-18T10:03:00.654Z,0.23888888888888887
2023-05-18T10:04:00.418Z,0.6361111111111111
2023-05-18T10:05:00.191Z,0.9527777777777778
2023-05-18T10:05:59.880Z,0.5555555555555556
2023-05-18T10:06:59.452Z,0.5166666666666667
2023-05-18T10:08:04.203Z,0.8694444444444444
2023-05-18T10:09:01.123Z,0.5166666666666667
2023-05-18T10:10:01.246Z,0.31666666666666665
2023-05-18T10:11:01.855Z,0.2777777777777778
2023-05-18T10:12:01.953Z,0.675
2023-05-18T10:13:01.052Z,0.23888888888888887
2023-05-18T10:14:01.322Z,0.4361111111111111
2023-05-18T10:15:01.467Z,0.3472222222222222
2023-05-18T10:16:02.147Z,0.5666666666666667
2023-05-18T10:17:14.313Z,0.4583333333333333
2023-05-18T10:18:02.142Z,0.4361111111111111
2023-05-18T10:19:01.141Z,0.7944444444444444
2023-05-18T10:20:01.081Z,0.31666666666666665
2023-05-18T10:21:00.826Z,0.03888888888888889
2023-05-18T10:22:01.336Z,0.2972222222222222
2023-05-18T10:23:02.605Z,1.0444444444444443
2023-05-18T10:24:02.157Z,0.5555555555555556
2023-05-18T10:25:02.204Z,0.4722222222222222
2023-05-18T10:26:01.135Z,0.9944444444444445
2023-05-18T10:27:01.044Z,0.6888888888888889
2023-05-18T10:28:01.042Z,0.3972222222222222